createdAt,value
2022-10-17T01:29:13.422Z,2.45
2022-10-17T05:38:33.957Z,2.58
2022-10-17T05:51:12.022Z,2.45
2022-10-17T06:03:10.563Z,2.35
2022-10-17T06:12:43.235Z,3.60
2022-10-17T06:15:10.994Z,3.05
2022-10-17T06:17:46.278Z,3.25
2022-10-17T06:20:16.122Z,2.83
2022-10-17T06:22:44.025Z,3.42
2022-10-17T06:29:27.609Z,3.72
2022-10-17T06:33:13.725Z,4.68
2022-10-17T06:38:48.416Z,3.33
2022-10-17T06:41:37.099Z,3.30
2022-10-17T06:44:27.173Z,3.55
2022-10-17T06:47:20.317Z,5.03
2022-10-17T06:49:48.188Z,4.35
2022-10-17T06:52:29.890Z,4.15
2022-10-17T06:55:19.593Z,4.05
2022-10-17T06:57:58.638Z,5.80
2022-10-17T07:00:42.862Z,4.80
2022-10-17T07:03:30.253Z,4.78
2022-10-17T09:48:38.422Z,2.00
2022-10-17T09:51:26.184Z,2.53
2022-10-17T09:54:28.829Z,2.40
2022-10-17T09:57:13.395Z,5.75
2022-10-17T10:00:32.619Z,2.60
2022-10-17T10:04:01.904Z,2.60
2022-10-17T10:07:10.033Z,2.60
2022-10-17T10:12:53.239Z,2.08
2022-10-17T10:16:18.976Z,1.80
2022-10-17T10:19:16.262Z,1.80
2022-10-17T10:22:36.288Z,1.70
2022-10-17T10:25:52.785Z,1.83
2022-10-17T10:29:39.182Z,2.00
2022-10-17T10:33:03.204Z,2.05
2022-10-17T10:35:37.474Z,2.10
2022-10-17T10:38:17.266Z,1.90
2022-10-17T10:41:00.666Z,2.35
2022-10-17T10:44:02.465Z,1.90
2022-10-17T10:49:48.532Z,6.22
2022-10-17T10:52:36.471Z,1.90
2022-10-17T10:55:30.550Z,2.20
2022-10-17T10:58:36.814Z,2.25
2022-10-17T11:01:22.015Z,2.13
2022-10-17T11:04:19.464Z,2.20
2022-10-17T11:06:49.422Z,1.95
2022-10-17T11:09:41.116Z,2.15
2022-10-17T11:12:39.454Z,2.42
2022-10-17T11:15:32.335Z,2.00
2022-10-17T11:18:26.850Z,1.77
2022-10-17T11:21:42.717Z,1.73
2022-10-17T11:24:28.841Z,1.60
2022-10-17T11:27:03.011Z,2.00
2022-10-17T11:29:38.862Z,1.70
2022-10-17T11:32:33.151Z,1.42
2022-10-17T11:35:28.839Z,1.70
2022-10-17T11:38:25.281Z,1.60
2022-10-17T11:40:56.153Z,1.52
2022-10-17T11:43:32.751Z,1.50
2022-10-17T11:46:16.815Z,1.65
2022-10-17T11:48:52.814Z,1.40
2022-10-17T11:54:38.286Z,1.50
2022-10-17T11:57:33.859Z,2.00
2022-10-17T12:00:22.051Z,1.63
2022-10-17T12:03:03.627Z,1.90
2022-10-17T12:06:11.596Z,1.50
2022-10-17T12:09:00.985Z,1.60
2022-10-17T12:11:54.466Z,1.52
2022-10-17T12:14:41.396Z,1.60
2022-10-17T12:17:32.608Z,1.40
2022-10-17T12:20:24.671Z,1.52
2022-10-17T12:22:53.058Z,1.48
2022-10-17T12:25:33.561Z,1.45
2022-10-17T12:28:06.718Z,1.33
2022-10-17T12:30:34.478Z,1.55
2022-10-17T12:33:22.586Z,1.73
2022-10-17T12:35:51.447Z,1.60
2022-10-17T12:38:18.326Z,1.63
2022-10-17T12:40:48.980Z,1.60
2022-10-17T12:43:16.071Z,1.70
2022-10-17T12:46:00.332Z,1.50
2022-10-17T12:48:42.208Z,1.58
2022-10-17T12:54:12.912Z,1.70
2022-10-17T12:56:42.172Z,1.80
2022-10-17T12:59:13.355Z,1.50
2022-10-17T13:01:46.298Z,1.67
2022-10-17T13:04:13.533Z,1.80
2022-10-17T13:06:53.149Z,1.50
2022-10-17T13:09:28.233Z,1.52
2022-10-17T13:11:57.927Z,1.50
2022-10-17T13:14:28.837Z,1.60
2022-10-17T13:17:00.385Z,1.80
2022-10-17T13:19:45.245Z,1.50
2022-10-17T13:22:20.120Z,1.52
2022-10-17T13:24:54.903Z,1.55
2022-10-17T13:27:30.905Z,1.65
2022-10-17T13:30:00.620Z,1.60
2022-10-17T13:32:57.485Z,1.30
2022-10-17T13:36:00.322Z,1.65
2022-10-17T13:39:12.172Z,1.40
2022-10-17T13:54:44.006Z,1.35
2022-10-17T14:25:11.537Z,1.30
2022-10-17T14:29:10.400Z,1.38
2022-10-17T15:01:20.930Z,1.77
2022-10-17T17:00:14.472Z,5.57
2022-10-17T18:48:40.118Z,4.60
2022-10-17T18:51:07.786Z,5.10
2022-10-17T18:53:35.316Z,5.07
2022-10-17T18:56:03.368Z,5.05
2022-10-17T18:58:30.513Z,5.15
2022-10-17T19:01:03.544Z,6.05
2022-10-17T19:03:31.274Z,5.95
2022-10-17T19:06:01.850Z,5.72
2022-10-17T19:08:31.590Z,6.00
2022-10-17T19:11:03.908Z,5.82
2022-10-17T19:13:32.135Z,6.32
2022-10-17T19:15:58.879Z,5.43
2022-10-17T19:18:25.859Z,5.20
2022-10-17T19:20:55.437Z,5.43
2022-10-17T19:23:22.541Z,5.20
2022-10-17T19:25:49.890Z,5.47
2022-10-17T19:28:17.638Z,5.72
2022-10-17T19:30:45.869Z,5.97
2022-10-17T19:33:14.408Z,4.93
2022-10-17T19:35:42.228Z,5.35
2022-10-17T19:38:10.578Z,5.75
2022-10-17T19:40:44.343Z,6.18
2022-10-17T19:43:12.629Z,5.32
2022-10-17T19:45:41.158Z,5.68
2022-10-17T19:48:09.784Z,5.93
2022-10-17T19:50:44.369Z,6.57
2022-10-17T19:53:12.679Z,5.25
2022-10-17T19:55:41.414Z,6.47
2022-10-17T19:58:12.628Z,5.88
2022-10-17T21:28:27.303Z,4.35
2022-10-17T21:30:54.171Z,5.20
2022-10-17T21:33:20.967Z,5.25
2022-10-17T21:35:47.876Z,5.00
2022-10-17T21:38:14.686Z,4.78
2022-10-17T21:40:46.090Z,3.67
2022-10-17T21:43:14.230Z,4.47
2022-10-17T21:45:40.939Z,4.30
2022-10-17T21:48:13.190Z,4.65
2022-10-17T21:50:41.430Z,4.63
2022-10-17T21:53:08.135Z,5.32
2022-10-17T21:55:37.192Z,4.50
2022-10-17T21:58:04.897Z,4.68
2022-10-17T22:00:31.630Z,5.00
2022-10-17T22:02:58.338Z,4.45
2022-10-17T22:05:25.241Z,3.63
2022-10-17T22:07:51.976Z,4.75
2022-10-17T22:10:18.785Z,4.50
2022-10-17T22:12:45.497Z,4.13
2022-10-17T22:15:12.215Z,3.55
2022-10-17T22:17:38.955Z,4.35
2022-10-17T22:20:06.269Z,4.97
2022-10-17T22:22:33.121Z,4.38
2022-10-17T22:24:59.908Z,4.82
2022-10-17T22:27:26.715Z,4.53
2022-10-17T22:29:53.448Z,4.10
2022-10-17T22:32:22.552Z,4.38
2022-10-17T22:34:49.504Z,4.13
2022-10-17T22:37:16.270Z,4.20
2022-10-17T22:39:45.408Z,3.72
2022-10-17T22:42:12.206Z,4.10
2022-10-17T22:44:42.919Z,4.45
2022-10-17T22:47:12.094Z,4.72
2022-10-17T22:49:43.782Z,4.53
2022-10-17T22:52:10.681Z,4.20
2022-10-17T22:54:37.803Z,3.60
2022-10-17T22:57:04.595Z,4.68
2022-10-17T22:59:31.419Z,4.47
2022-10-17T23:01:58.291Z,4.43
2022-10-17T23:04:27.766Z,4.18
2022-10-17T23:06:54.643Z,3.78
2022-10-17T23:09:21.511Z,3.90
2022-10-17T23:11:48.399Z,4.40
2022-10-17T23:14:15.246Z,4.03
2022-10-17T23:16:42.015Z,3.88
2022-10-17T23:19:09.285Z,3.28
2022-10-17T23:21:35.977Z,4.15
2022-10-17T23:24:02.650Z,4.18
2022-10-17T23:26:29.366Z,3.15
2022-10-17T23:28:56.170Z,3.88
2022-10-17T23:31:23.365Z,4.43
2022-10-17T23:33:50.551Z,4.28
2022-10-17T23:36:20.066Z,3.42
2022-10-17T23:38:47.852Z,3.95
2022-10-17T23:41:15.237Z,3.88
2022-10-17T23:43:42.365Z,3.45
2022-10-17T23:46:09.919Z,3.25
2022-10-17T23:48:38.566Z,3.80
2022-10-17T23:51:07.108Z,3.20
2022-10-17T23:53:33.920Z,3.80
2022-10-17T23:56:00.768Z,4.07
2022-10-17T23:58:27.576Z,4.13
